Time,TemperatureF,DewpointF,PressureIn,WindDirection,WindDirectionDegrees,WindSpeedMPH,WindSpeedGustMPH,Humidity,HourlyPrecipIn,Conditions,Clouds,dailyrainin,SoftwareType,DateUTC
2013-09-13 00:10:00,57.1,56.0,29.89,SW,229,0.0,4.0,96,0.00,,,0.00,weatherlink.com 1.10,2013-09-13 07:10:00,
2013-09-13 00:25:00,56.8,56.0,29.89,SW,217,4.0,5.0,96,0.00,,,0.00,weatherlink.com 1.10,2013-09-13 07:25:00,
2013-09-13 00:40:00,56.4,56.0,29.89,WSW,246,4.0,6.0,97,0.00,,,0.00,weatherlink.com 1.10,2013-09-13 07:40:00,
2013-09-13 00:55:00,56.2,55.0,29.89,SSW,201,2.0,4.0,97,0.00,,,0.00,weatherlink.com 1.10,2013-09-13 07:55:00,
2013-09-13 01:10:00,56.3,56.0,29.88,SW,226,0.0,0.0,98,0.00,,,0.00,weatherlink.com 1.10,2013-09-13 08:10:00,
2013-09-13 01:25:00,56.4,56.0,29.88,SSW,200,2.0,4.0,98,0.00,,,0.00,weatherlink.com 1.10,2013-09-13 08:25:00,
2013-09-13 01:40:00,56.1,55.0,29.88,SSW,208,3.0,4.0,97,0.00,,,0.00,weatherlink.com 1.10,2013-09-13 08:40:00,
2013-09-13 01:55:00,55.9,55.0,29.89,SSW,193,2.0,4.0,98,0.00,,,0.00,weatherlink.com 1.10,2013-09-13 08:55:00,
2013-09-13 02:10:00,55.8,55.0,29.89,SSW,211,0.0,5.0,98,0.00,,,0.00,weatherlink.com 1.10,2013-09-13 09:10:00,
2013-09-13 02:25:00,56.0,56.0,29.89,SSW,210,0.0,0.0,98,0.00,,,0.00,weatherlink.com 1.10,2013-09-13 09:25:00,
2013-09-13 02:40:00,55.9,55.0,29.88,SSW,198,0.0,3.0,98,0.00,,,0.00,weatherlink.com 1.10,2013-09-13 09:40:00,
2013-09-13 02:55:00,55.7,55.0,29.88,South,179,0.0,2.0,98,0.00,,,0.00,weatherlink.com 1.10,2013-09-13 09:55:00,
2013-09-13 03:10:00,55.5,55.0,29.88,ENE,70,0.0,0.0,98,0.00,,,0.00,weatherlink.com 1.10,2013-09-13 10:10:00,
2013-09-13 03:25:00,55.6,55.0,29.87,ESE,119,0.0,3.0,98,0.00,,,0.00,weatherlink.com 1.10,2013-09-13 10:25:00,
2013-09-13 03:40:00,55.5,55.0,29.87,SSW,207,0.0,0.0,98,0.00,,,0.00,weatherlink.com 1.10,2013-09-13 10:40:00,
2013-09-13 03:55:00,55.3,55.0,29.87,SW,214,0.0,4.0,98,0.00,,,0.00,weatherlink.com 1.10,2013-09-13 10:55:00,
2013-09-13 04:10:00,55.3,55.0,29.86,SSW,198,0.0,5.0,98,0.00,,,0.00,weatherlink.com 1.10,2013-09-13 11:10:00,
2013-09-13 04:26:00,55.3,55.0,29.87,SSW,198,0.0,3.0,98,0.00,,,0.00,weatherlink.com 1.10,2013-09-13 11:26:00,
2013-09-13 04:40:00,54.9,54.0,29.87,SSE,159,0.0,2.0,98,0.00,,,0.00,weatherlink.com 1.10,2013-09-13 11:40:00,
2013-09-13 04:56:00,54.8,54.0,29.87,NE,54,0.0,3.0,98,0.00,,,0.00,weatherlink.com 1.10,2013-09-13 11:56:00,
2013-09-13 05:11:00,54.7,55.0,29.87,East,101,0.0,0.0,99,0.00,,,0.00,weatherlink.com 1.10,2013-09-13 12:11:00,
2013-09-13 05:26:00,54.8,55.0,29.87,NE,44,0.0,0.0,99,0.00,,,0.00,weatherlink.com 1.10,2013-09-13 12:26:00,
2013-09-13 05:41:00,54.7,55.0,29.87,ENE,68,0.0,0.0,99,0.00,,,0.00,weatherlink.com 1.10,2013-09-13 12:41:00,
2013-09-13 05:56:00,54.7,55.0,29.87,ESE,107,0.0,0.0,99,0.00,,,0.00,weatherlink.com 1.10,2013-09-13 12:56:00,
2013-09-13 06:11:00,55.0,55.0,29.87,East,98,0.0,0.0,99,0.00,,,0.00,weatherlink.com 1.10,2013-09-13 13:11:00,
2013-09-13 06:26:00,55.1,55.0,29.87,ESE,104,0.0,0.0,99,0.00,,,0.00,weatherlink.com 1.10,2013-09-13 13:26:00,
2013-09-13 06:41:00,55.0,55.0,29.87,ESE,122,0.0,0.0,99,0.00,,,0.00,weatherlink.com 1.10,2013-09-13 13:41:00,
2013-09-13 06:56:00,54.6,54.0,29.87,SW,226,0.0,0.0,98,0.00,,,0.00,weatherlink.com 1.10,2013-09-13 13:56:00,
2013-09-13 07:11:00,54.6,54.0,29.88,SW,226,0.0,0.0,99,0.00,,,0.00,weatherlink.com 1.10,2013-09-13 14:11:00,
2013-09-13 07:26:00,54.8,55.0,29.88,SW,225,0.0,0.0,99,0.00,,,0.00,weatherlink.com 1.10,2013-09-13 14:26:00,
2013-09-13 07:41:00,54.9,55.0,29.88,East,94,0.0,0.0,99,0.00,,,0.00,weatherlink.com 1.10,2013-09-13 14:41:00,
2013-09-13 07:56:00,55.3,55.0,29.88,SE,134,0.0,0.0,99,0.00,,,0.00,weatherlink.com 1.10,2013-09-13 14:56:00,
2013-09-13 08:11:00,55.6,55.0,29.89,SSE,157,0.0,0.0,99,0.00,,,0.00,weatherlink.com 1.10,2013-09-13 15:11:00,
2013-09-13 08:26:00,55.6,55.0,29.88,SSW,207,0.0,0.0,99,0.00,,,0.00,weatherlink.com 1.10,2013-09-13 15:26:00,
2013-09-13 08:41:00,55.8,55.0,29.88,SW,226,0.0,0.0,98,0.00,,,0.00,weatherlink.com 1.10,2013-09-13 15:41:00,
2013-09-13 08:56:00,56.3,56.0,29.88,WSW,250,0.0,0.0,99,0.00,,,0.00,weatherlink.com 1.10,2013-09-13 15:56:00,
2013-09-13 09:11:00,57.0,57.0,29.88,NW,311,0.0,0.0,98,0.00,,,0.00,weatherlink.com 1.10,2013-09-13 16:11:00,
2013-09-13 09:26:00,59.2,58.0,29.88,SE,141,0.0,0.0,97,0.00,,,0.00,weatherlink.com 1.10,2013-09-13 16:26:00,
2013-09-13 09:41:00,60.4,58.0,29.88,West,281,0.0,0.0,92,0.00,,,0.00,weatherlink.com 1.10,2013-09-13 16:41:00,
2013-09-13 09:56:00,61.8,59.0,29.88,SW,219,4.0,4.0,89,0.00,,,0.00,weatherlink.com 1.10,2013-09-13 16:56:00,
2013-09-13 10:11:00,61.9,58.0,29.88,WNW,300,2.0,4.0,88,0.00,,,0.00,weatherlink.com 1.10,2013-09-13 17:11:00,
2013-09-13 10:26:00,63.1,59.0,29.88,SW,228,1.0,3.0,86,0.00,,,0.00,weatherlink.com 1.10,2013-09-13 17:26:00,
2013-09-13 10:41:00,64.4,60.0,29.87,SW,221,0.0,3.0,84,0.00,,,0.00,weatherlink.com 1.10,2013-09-13 17:41:00,
2013-09-13 10:56:00,65.5,60.0,29.87,West,266,1.0,3.0,81,0.00,,,0.00,weatherlink.com 1.10,2013-09-13 17:56:00,
2013-09-13 11:11:00,67.3,60.0,29.86,WSW,257,1.0,4.0,77,0.00,,,0.00,weatherlink.com 1.10,2013-09-13 18:11:00,
2013-09-13 11:26:00,68.9,60.0,29.86,South,176,0.0,3.0,74,0.00,,,0.00,weatherlink.com 1.10,2013-09-13 18:26:00,
2013-09-13 11:41:00,70.9,60.0,29.86,WSW,254,1.0,5.0,69,0.00,,,0.00,weatherlink.com 1.10,2013-09-13 18:41:00,
2013-09-13 11:56:00,72.8,61.0,29.85,SW,225,2.0,5.0,66,0.00,,,0.00,weatherlink.com 1.10,2013-09-13 18:56:00,
2013-09-13 12:12:00,74.6,61.0,29.84,WSW,252,2.0,5.0,63,0.00,,,0.00,weatherlink.com 1.10,2013-09-13 19:12:00,
2013-09-13 12:27:00,75.1,61.0,29.83,WNW,296,2.0,7.0,62,0.00,,,0.00,weatherlink.com 1.10,2013-09-13 19:27:00,
2013-09-13 12:42:00,76.0,62.0,29.83,SSW,203,4.0,8.0,62,0.00,,,0.00,weatherlink.com 1.10,2013-09-13 19:42:00,
2013-09-13 12:57:00,76.1,62.0,29.82,WNW,296,3.0,9.0,61,0.00,,,0.00,weatherlink.com 1.10,2013-09-13 19:57:00,
2013-09-13 13:12:00,77.2,61.0,29.82,SSE,153,2.0,9.0,58,0.00,,,0.00,weatherlink.com 1.10,2013-09-13 20:12:00,
2013-09-13 13:27:00,78.1,61.0,29.81,SSE,162,3.0,13.0,56,0.00,,,0.00,weatherlink.com 1.10,2013-09-13 20:27:00,
2013-09-13 13:42:00,77.9,60.0,29.81,WSW,238,8.0,9.0,55,0.00,,,0.00,weatherlink.com 1.10,2013-09-13 20:42:00,
2013-09-13 13:57:00,77.5,60.0,29.80,SSW,208,5.0,11.0,55,0.00,,,0.00,weatherlink.com 1.10,2013-09-13 20:57:00,
2013-09-13 14:12:00,77.9,59.0,29.80,SW,226,11.0,12.0,53,0.00,,,0.00,weatherlink.com 1.10,2013-09-13 21:12:00,
2013-09-13 14:42:00,77.1,59.0,29.79,SSE,149,6.0,17.0,53,0.00,,,0.00,weatherlink.com 1.10,2013-09-13 21:42:00,
2013-09-13 14:57:00,76.7,59.0,29.78,SW,218,9.0,16.0,54,0.00,,,0.00,weatherlink.com 1.10,2013-09-13 21:57:00,
2013-09-13 15:12:00,76.0,59.0,29.78,South,176,3.0,14.0,55,0.00,,,0.00,weatherlink.com 1.10,2013-09-13 22:12:00,
2013-09-13 15:27:00,75.9,59.0,29.77,SW,219,9.0,16.0,56,0.00,,,0.00,weatherlink.com 1.10,2013-09-13 22:27:00,
2013-09-13 15:42:00,75.9,58.0,29.77,SW,233,12.0,15.0,55,0.00,,,0.00,weatherlink.com 1.10,2013-09-13 22:42:00,
2013-09-13 15:57:00,75.3,58.0,29.76,SSE,167,9.0,15.0,56,0.00,,,0.00,weatherlink.com 1.10,2013-09-13 22:57:00,
2013-09-13 16:12:00,74.2,59.0,29.75,SW,229,17.0,17.0,60,0.00,,,0.00,weatherlink.com 1.10,2013-09-13 23:12:00,
2013-09-13 16:27:00,72.9,59.0,29.75,SW,214,12.0,18.0,62,0.00,,,0.00,weatherlink.com 1.10,2013-09-13 23:27:00,
2013-09-13 16:43:00,72.3,59.0,29.75,SSW,210,9.0,16.0,63,0.00,,,0.00,weatherlink.com 1.10,2013-09-13 23:43:00,
2013-09-13 16:57:00,72.0,59.0,29.74,WSW,240,9.0,15.0,64,0.00,,,0.00,weatherlink.com 1.10,2013-09-13 23:57:00,
2013-09-13 17:12:00,71.2,59.0,29.74,SSW,210,7.0,15.0,66,0.00,,,0.00,weatherlink.com 1.10,2013-09-14 00:12:00,
2013-09-13 17:27:00,70.6,59.0,29.73,SW,236,9.0,15.0,67,0.00,,,0.00,weatherlink.com 1.10,2013-09-14 00:27:00,
2013-09-13 17:42:00,69.9,59.0,29.73,South,191,9.0,15.0,68,0.00,,,0.00,weatherlink.com 1.10,2013-09-14 00:42:00,
2013-09-13 17:57:00,69.5,59.0,29.73,SSW,204,4.0,14.0,69,0.00,,,0.00,weatherlink.com 1.10,2013-09-14 00:57:00,
2013-09-13 18:12:00,68.9,58.0,29.73,South,172,8.0,14.0,69,0.00,,,0.00,weatherlink.com 1.10,2013-09-14 01:12:00,
2013-09-13 18:27:00,68.2,58.0,29.73,SW,214,8.0,14.0,70,0.00,,,0.00,weatherlink.com 1.10,2013-09-14 01:27:00,
2013-09-13 18:42:00,67.4,58.0,29.73,SSW,205,6.0,11.0,72,0.00,,,0.00,weatherlink.com 1.10,2013-09-14 01:42:00,
2013-09-13 18:57:00,66.4,58.0,29.73,SSE,163,5.0,9.0,74,0.00,,,0.00,weatherlink.com 1.10,2013-09-14 01:57:00,
2013-09-13 19:13:00,64.8,57.0,29.73,SW,219,3.0,10.0,76,0.00,,,0.00,weatherlink.com 1.10,2013-09-14 02:13:00,
2013-09-13 19:28:00,63.2,57.0,29.73,SW,221,5.0,7.0,80,0.00,,,0.00,weatherlink.com 1.10,2013-09-14 02:28:00,
2013-09-13 19:43:00,62.1,57.0,29.73,SW,217,2.0,6.0,82,0.00,,,0.00,weatherlink.com 1.10,2013-09-14 02:43:00,
2013-09-13 19:58:00,61.2,56.0,29.73,SW,224,2.0,6.0,84,0.00,,,0.00,weatherlink.com 1.10,2013-09-14 02:58:00,
2013-09-13 20:13:00,60.5,56.0,29.73,SSW,200,2.0,5.0,85,0.00,,,0.00,weatherlink.com 1.10,2013-09-14 03:13:00,
2013-09-13 20:28:00,59.9,56.0,29.74,SW,224,0.0,3.0,86,0.00,,,0.00,weatherlink.com 1.10,2013-09-14 03:28:00,
2013-09-13 20:43:00,59.5,56.0,29.75,SW,222,0.0,2.0,87,0.00,,,0.00,weatherlink.com 1.10,2013-09-14 03:43:00,
2013-09-13 20:58:00,58.8,55.0,29.75,South,181,0.0,4.0,88,0.00,,,0.00,weatherlink.com 1.10,2013-09-14 03:58:00,
2013-09-13 21:13:00,58.3,55.0,29.75,SSW,199,0.0,2.0,89,0.00,,,0.00,weatherlink.com 1.10,2013-09-14 04:13:00,
2013-09-13 21:28:00,57.9,55.0,29.75,SSW,198,0.0,0.0,90,0.00,,,0.00,weatherlink.com 1.10,2013-09-14 04:28:00,
2013-09-13 21:43:00,57.3,55.0,29.75,South,183,0.0,0.0,90,0.00,,,0.00,weatherlink.com 1.10,2013-09-14 04:43:00,
2013-09-13 21:58:00,57.0,55.0,29.75,SW,214,0.0,0.0,91,0.00,,,0.00,weatherlink.com 1.10,2013-09-14 04:58:00,
2013-09-13 22:13:00,56.5,54.0,29.76,SSW,198,0.0,0.0,91,0.00,,,0.00,weatherlink.com 1.10,2013-09-14 05:13:00,
2013-09-13 22:28:00,56.4,54.0,29.75,SSW,197,0.0,0.0,92,0.00,,,0.00,weatherlink.com 1.10,2013-09-14 05:28:00,
2013-09-13 22:43:00,55.9,54.0,29.76,SSW,198,0.0,0.0,92,0.00,,,0.00,weatherlink.com 1.10,2013-09-14 05:43:00,
2013-09-13 22:58:00,55.8,54.0,29.76,SSW,196,0.0,0.0,93,0.00,,,0.00,weatherlink.com 1.10,2013-09-14 05:58:00,
2013-09-13 23:13:00,55.6,54.0,29.76,SSW,195,0.0,0.0,93,0.00,,,0.00,weatherlink.com 1.10,2013-09-14 06:13:00,
2013-09-13 23:28:00,55.2,53.0,29.76,SSW,197,0.0,0.0,93,0.00,,,0.00,weatherlink.com 1.10,2013-09-14 06:28:00,
2013-09-13 23:43:00,55.0,53.0,29.75,SW,215,0.0,0.0,93,0.00,,,0.00,weatherlink.com 1.10,2013-09-14 06:43:00,
2013-09-13 23:58:00,54.7,53.0,29.75,SW,215,0.0,0.0,93,0.00,,,0.00,weatherlink.com 1.10,2013-09-14 06:58:00,